Time;durP1;ratioP1;P1;durP2;ratioP2;P2;SDS_P1;SDS_P2;PMS_P1;PMS_P2;Temp;Humidity;BMP_temperature;BMP_pressure;BME280_temperature;BME280_humidity;BME280_pressure;Samples;Min_cycle;Max_cycle;Signal;HPM_P1;HPM_P2
2023/09/30 00:00:08;;;;;;;15.18;6.35;;;;;;;15.34;57.07;96734.25;5134837;27;20508;-62
2023/09/30 00:02:35;;;;;;;11.38;4.82;;;;;;;15.13;57.67;96731.84;5134519;27;20055;-62
2023/09/30 00:05:04;;;;;;;11.52;5.78;;;;;;;15.06;58.30;96733.09;5134087;27;20047;-62
2023/09/30 00:07:31;;;;;;;12.50;5.50;;;;;;;14.85;58.36;96732.44;5134587;27;20088;-62
2023/09/30 00:09:59;;;;;;;8.60;5.78;;;;;;;14.75;59.27;96732.88;5134509;27;20439;-62
2023/09/30 00:12:26;;;;;;;9.10;5.38;;;;;;;14.49;59.87;96732.47;5134484;27;20450;-62
2023/09/30 00:14:54;;;;;;;11.07;5.03;;;;;;;14.30;60.07;96735.13;5134662;27;20050;-62
2023/09/30 00:17:21;;;;;;;9.55;5.35;;;;;;;14.22;60.85;96737.31;5134641;27;20082;-62
2023/09/30 00:19:48;;;;;;;14.32;5.78;;;;;;;14.07;61.53;96739.78;5134341;27;20047;-62
2023/09/30 00:22:17;;;;;;;12.40;5.93;;;;;;;13.97;61.77;96735.91;5134337;27;20074;-62
2023/09/30 00:24:44;;;;;;;12.85;5.80;;;;;;;13.93;62.03;96729.94;5134406;27;20078;-62
2023/09/30 00:27:11;;;;;;;10.70;5.55;;;;;;;13.93;62.16;96729.94;5134082;27;20087;-62
2023/09/30 00:29:38;;;;;;;15.15;6.20;;;;;;;13.88;62.03;96735.41;5134181;27;20407;-62
2023/09/30 00:32:05;;;;;;;12.55;5.90;;;;;;;13.83;62.47;96729.53;5134196;27;20043;-62
2023/09/30 00:34:34;;;;;;;8.48;5.07;;;;;;;13.77;62.70;96729.81;5134293;27;20142;-62
2023/09/30 00:37:02;;;;;;;10.95;5.90;;;;;;;13.70;62.92;96731.88;5134123;27;20541;-62
2023/09/30 00:39:30;;;;;;;8.95;5.32;;;;;;;13.63;63.34;96725.22;5134061;27;20146;-62
2023/09/30 00:41:59;;;;;;;8.38;5.70;;;;;;;13.55;63.33;96725.59;5134258;27;20383;-62
2023/09/30 00:44:27;;;;;;;12.15;5.43;;;;;;;13.55;63.31;96719.47;5134224;27;20071;-62
2023/09/30 00:46:56;;;;;;;15.77;5.07;;;;;;;13.48;63.54;96725.00;5133896;27;20489;-62
2023/09/30 00:49:24;;;;;;;12.57;5.55;;;;;;;13.40;63.21;96719.25;5134025;28;20470;-62
2023/09/30 00:51:52;;;;;;;10.02;5.13;;;;;;;13.37;63.48;96720.22;5134154;28;20047;-62
2023/09/30 00:54:22;;;;;;;13.68;5.65;;;;;;;13.39;63.75;96714.91;5133956;28;20047;-62
2023/09/30 00:56:53;;;;;;;10.02;5.22;;;;;;;13.38;63.39;96711.44;5133930;28;20051;-62
2023/09/30 00:59:20;;;;;;;7.35;4.93;;;;;;;13.45;63.35;96717.25;5133902;28;20130;-62
2023/09/30 01:01:48;;;;;;;9.35;5.60;;;;;;;13.43;63.21;96719.13;5133793;28;20039;-62
2023/09/30 01:04:16;;;;;;;9.38;5.00;;;;;;;13.39;63.15;96712.28;5133951;28;20096;-62
2023/09/30 01:06:43;;;;;;;10.05;5.70;;;;;;;13.33;63.28;96718.66;5133728;28;20084;-62
2023/09/30 01:09:10;;;;;;;11.63;4.78;;;;;;;13.34;63.45;96707.22;5133910;28;20047;-62
2023/09/30 01:11:37;;;;;;;11.63;5.57;;;;;;;13.36;63.31;96708.03;5133869;28;20043;-62
2023/09/30 01:14:05;;;;;;;7.75;5.43;;;;;;;13.38;63.13;96708.81;5133843;28;20078;-62
2023/09/30 01:16:32;;;;;;;13.45;5.68;;;;;;;13.40;63.02;96711.38;5135805;27;20213;-62
2023/09/30 01:19:00;;;;;;;12.15;6.20;;;;;;;13.40;63.28;96708.75;5137993;27;20097;-62
2023/09/30 01:21:28;;;;;;;10.13;5.60;;;;;;;13.39;63.38;96707.88;5137838;27;20043;-62
2023/09/30 01:23:56;;;;;;;11.13;5.18;;;;;;;13.40;63.28;96709.56;5137770;27;20391;-62
2023/09/30 01:26:24;;;;;;;9.93;5.50;;;;;;;13.45;63.30;96700.66;5137781;27;20089;-62
2023/09/30 01:28:51;;;;;;;14.25;5.93;;;;;;;13.44;63.19;96705.03;5137646;27;20039;-62
2023/09/30 01:31:18;;;;;;;12.50;4.78;;;;;;;13.44;63.19;96707.66;5137637;27;20051;-62
2023/09/30 01:33:45;;;;;;;10.68;5.90;;;;;;;13.42;63.01;96706.88;5137611;27;20438;-62
2023/09/30 01:36:12;;;;;;;12.25;5.82;;;;;;;13.34;63.41;96701.97;5137622;27;20075;-62
2023/09/30 01:38:39;;;;;;;8.60;4.47;;;;;;;13.35;63.30;96695.81;5137460;27;20049;-62
2023/09/30 01:41:07;;;;;;;9.40;5.30;;;;;;;13.30;63.51;96707.47;5137435;27;20043;-62
2023/09/30 01:43:36;;;;;;;17.40;5.07;;;;;;;13.27;63.49;96708.44;5137462;27;20079;-62
2023/09/30 01:46:04;;;;;;;11.70;5.47;;;;;;;13.24;63.81;96703.31;5137542;27;20047;-62
2023/09/30 01:48:31;;;;;;;9.73;5.40;;;;;;;13.23;63.78;96705.13;5136083;27;20043;-62
2023/09/30 01:50:58;;;;;;;14.35;5.10;;;;;;;13.21;63.93;96703.47;5137250;27;20055;-62
2023/09/30 01:53:25;;;;;;;13.13;5.80;;;;;;;13.23;64.03;96701.63;5137078;27;20481;-62
2023/09/30 01:55:52;;;;;;;13.55;5.82;;;;;;;13.18;64.14;96704.47;5137224;27;20099;-62
2023/09/30 01:58:20;;;;;;;9.13;4.72;;;;;;;13.05;64.76;96701.56;5137214;27;20047;-62
2023/09/30 02:00:47;;;;;;;9.48;5.55;;;;;;;13.02;64.84;96701.69;5137139;27;20146;-61
2023/09/30 02:03:15;;;;;;;10.27;5.57;;;;;;;13.00;64.86;96698.28;5136850;27;20459;-62
2023/09/30 02:05:42;;;;;;;14.98;5.50;;;;;;;12.99;65.12;96693.94;5136884;27;20051;-62
2023/09/30 02:08:10;;;;;;;13.45;5.15;;;;;;;12.97;65.20;96695.78;5136925;27;20051;-62
2023/09/30 02:10:37;;;;;;;19.80;5.55;;;;;;;12.95;65.48;96689.78;5136793;27;20055;-62
2023/09/30 02:13:05;;;;;;;13.27;6.40;;;;;;;12.93;65.59;96691.59;5136927;27;20091;-62
2023/09/30 02:15:33;;;;;;;11.18;5.35;;;;;;;12.97;65.55;96698.41;5136714;27;20040;-62
2023/09/30 02:18:01;;;;;;;10.75;5.45;;;;;;;12.98;65.50;96693.09;5136752;27;20116;-62
2023/09/30 02:20:30;;;;;;;14.23;5.88;;;;;;;13.01;65.52;96685.06;5136701;27;20054;-62
2023/09/30 02:22:58;;;;;;;11.75;5.55;;;;;;;13.04;65.33;96680.63;5136601;27;20043;-62
2023/09/30 02:25:26;;;;;;;11.13;5.35;;;;;;;12.98;65.55;96684.38;5136560;27;20051;-62
2023/09/30 02:27:53;;;;;;;10.73;6.22;;;;;;;13.04;65.71;96680.63;5135716;27;20047;-62
2023/09/30 02:30:21;;;;;;;11.50;5.53;;;;;;;13.08;65.17;96683.03;5136506;27;20043;-62
2023/09/30 02:32:49;;;;;;;11.15;5.55;;;;;;;13.11;65.30;96682.91;5136363;27;20050;-62
2023/09/30 02:35:17;;;;;;;11.88;5.80;;;;;;;13.14;64.96;96690.63;5136326;27;20047;-62
2023/09/30 02:37:44;;;;;;;10.52;5.78;;;;;;;13.16;64.96;96680.06;5136334;27;20053;-62
2023/09/30 02:40:13;;;;;;;13.57;5.43;;;;;;;13.24;64.04;96680.56;5136344;27;20047;-62
2023/09/30 02:42:42;;;;;;;16.17;5.30;;;;;;;13.32;64.12;96677.56;5136381;27;20190;-62
2023/09/30 02:45:10;;;;;;;16.80;6.15;;;;;;;13.34;63.60;96675.69;5136328;27;20134;-62
2023/09/30 02:47:38;;;;;;;9.70;5.28;;;;;;;13.39;62.88;96678.97;5136006;27;20508;-62
2023/09/30 02:50:11;;;;;;;11.02;5.50;;;;;;;13.50;62.81;96685.53;5136368;27;20051;-62
2023/09/30 02:52:39;;;;;;;11.13;5.63;;;;;;;13.54;62.97;96675.75;5136117;27;20108;-62
2023/09/30 02:55:07;;;;;;;15.20;5.85;;;;;;;13.59;63.15;96678.97;5136209;27;20050;-62
2023/09/30 02:57:35;;;;;;;10.90;5.68;;;;;;;13.66;63.27;96674.28;5135961;27;20165;-62
2023/09/30 03:00:12;;;;;;;13.27;6.68;;;;;;;13.70;63.02;96681.94;5136244;27;20050;-62
2023/09/30 03:02:39;;;;;;;16.65;5.90;;;;;;;13.71;63.01;96677.53;5135902;27;20043;-62
2023/09/30 03:05:08;;;;;;;7.72;5.60;;;;;;;13.74;62.88;96680.03;5135842;27;20480;-62
2023/09/30 03:07:36;;;;;;;14.68;5.93;;;;;;;13.73;62.91;96678.31;5135825;27;20076;-62
2023/09/30 03:10:05;;;;;;;11.40;6.18;;;;;;;13.73;63.06;96679.16;5135909;27;20082;-62
2023/09/30 03:12:32;;;;;;;8.98;5.78;;;;;;;13.71;63.04;96670.50;5135697;27;20178;-62
2023/09/30 03:14:59;;;;;;;9.95;6.10;;;;;;;13.72;63.17;96673.97;5135578;27;20050;-62
2023/09/30 03:17:26;;;;;;;9.57;5.82;;;;;;;13.69;62.94;96669.72;5135436;27;20096;-61
2023/09/30 03:19:53;;;;;;;8.50;5.50;;;;;;;13.69;63.01;96672.34;5135491;27;20126;-62
2023/09/30 03:22:22;;;;;;;15.20;6.68;;;;;;;13.66;62.88;96677.75;5135500;27;20054;-62
2023/09/30 03:24:49;;;;;;;11.35;5.80;;;;;;;13.57;63.03;96673.78;5135573;27;20440;-62
2023/09/30 03:27:16;;;;;;;12.48;6.32;;;;;;;13.57;63.38;96676.44;5135399;27;20051;-62
2023/09/30 03:29:43;;;;;;;12.15;5.95;;;;;;;13.53;63.95;96674.88;5135425;27;20138;-61
2023/09/30 03:32:10;;;;;;;15.43;5.75;;;;;;;13.49;63.64;96674.16;5135351;27;20464;-62
2023/09/30 03:34:37;;;;;;;11.57;5.20;;;;;;;13.43;63.95;96665.69;5135219;27;20057;-62
2023/09/30 03:37:06;;;;;;;22.83;5.82;;;;;;;13.45;64.17;96664.69;5135137;27;20082;-62
2023/09/30 03:39:34;;;;;;;9.27;5.60;;;;;;;13.49;63.96;96668.03;5134126;27;20047;-62
2023/09/30 03:42:03;;;;;;;12.80;6.03;;;;;;;13.52;63.81;96668.75;5135106;27;20126;-62
2023/09/30 03:44:30;;;;;;;10.82;5.82;;;;;;;13.51;63.69;96668.81;5135019;27;20043;-62
2023/09/30 03:46:59;;;;;;;16.92;6.72;;;;;;;13.45;63.48;96672.56;5135069;27;20065;-62
2023/09/30 03:49:26;;;;;;;12.30;6.05;;;;;;;13.49;63.67;96662.78;5134933;27;20051;-62
2023/09/30 03:51:53;;;;;;;20.10;5.68;;;;;;;13.47;63.29;96672.50;5134798;27;20077;-62
2023/09/30 03:54:21;;;;;;;11.48;5.45;;;;;;;13.50;62.60;96667.13;5134795;27;20043;-62
2023/09/30 03:56:49;;;;;;;18.50;6.03;;;;;;;13.60;62.42;96673.66;5134763;27;20389;-62
2023/09/30 03:59:17;;;;;;;16.77;5.55;;;;;;;13.69;61.81;96676.78;5134839;27;20047;-62
2023/09/30 04:01:47;;;;;;;19.88;6.32;;;;;;;13.72;61.89;96671.34;5134759;27;20047;-62
2023/09/30 04:04:14;;;;;;;9.82;5.78;;;;;;;13.78;61.09;96678.94;5134740;27;20078;-62
2023/09/30 04:06:42;;;;;;;16.23;6.07;;;;;;;13.81;60.77;96663.00;5134598;27;20068;-62
2023/09/30 04:09:11;;;;;;;26.15;5.97;;;;;;;13.87;59.80;96669.75;5134603;27;20095;-62
2023/09/30 04:11:38;;;;;;;12.43;5.68;;;;;;;13.95;59.75;96664.13;5134598;27;20085;-62
2023/09/30 04:14:08;;;;;;;15.35;6.65;;;;;;;14.05;58.90;96661.91;5134550;27;20088;-62
2023/09/30 04:16:35;;;;;;;21.90;6.28;;;;;;;14.21;56.99;96668.06;5134541;27;20047;-62
2023/09/30 04:19:03;;;;;;;12.35;6.53;;;;;;;14.40;57.24;96668.00;5134503;27;20047;-62
2023/09/30 04:21:34;;;;;;;17.42;5.75;;;;;;;14.51;56.46;96669.22;5134344;27;20043;-62
2023/09/30 04:24:01;;;;;;;15.23;7.03;;;;;;;14.63;56.82;96667.72;5134385;27;20047;-62
2023/09/30 04:26:28;;;;;;;15.90;6.50;;;;;;;14.68;56.78;96670.94;5134491;27;20051;-62
2023/09/30 04:28:55;;;;;;;8.88;5.95;;;;;;;14.73;57.07;96674.19;5134097;27;20488;-62
2023/09/30 04:31:24;;;;;;;8.88;6.25;;;;;;;14.77;57.31;96674.88;5134280;27;20437;-62
2023/09/30 04:33:52;;;;;;;10.25;6.53;;;;;;;14.71;57.68;96669.94;5134305;27;20085;-62
2023/09/30 04:36:21;;;;;;;10.02;6.75;;;;;;;14.58;58.68;96673.22;5134144;27;20043;-62
2023/09/30 04:38:49;;;;;;;13.82;6.22;;;;;;;14.47;59.22;96672.91;5134117;27;20061;-62
2023/09/30 04:41:16;;;;;;;10.07;6.20;;;;;;;14.43;59.72;96674.88;5134165;27;20048;-62
2023/09/30 04:43:44;;;;;;;21.65;7.50;;;;;;;14.23;60.62;96676.72;5134077;27;20456;-62
2023/09/30 04:46:12;;;;;;;13.77;6.00;;;;;;;14.17;60.93;96676.22;5134153;27;20078;-62
2023/09/30 04:48:41;;;;;;;17.73;7.65;;;;;;;14.12;61.25;96677.25;5134092;28;20047;-62
2023/09/30 04:51:08;;;;;;;11.07;6.93;;;;;;;14.13;61.27;96686.88;5136639;27;20078;-62
2023/09/30 04:53:36;;;;;;;12.23;6.13;;;;;;;14.21;61.09;96675.94;5141007;27;20043;-62
2023/09/30 04:56:04;;;;;;;16.08;7.35;;;;;;;14.23;60.90;96687.25;5140840;27;20043;-62
2023/09/30 04:58:32;;;;;;;14.13;6.75;;;;;;;14.45;60.43;96680.06;5140811;27;20480;-62
2023/09/30 05:00:59;;;;;;;13.73;6.70;;;;;;;15.10;58.97;96671.41;5140787;27;20430;-62
2023/09/30 05:03:26;;;;;;;17.73;7.10;;;;;;;15.95;55.17;96679.97;5140716;27;20400;-62
2023/09/30 05:05:57;;;;;;;11.27;7.15;;;;;;;16.90;53.71;96677.03;5140831;27;20054;-62
2023/09/30 05:08:25;;;;;;;16.45;7.47;;;;;;;17.74;48.70;96682.41;5140715;27;20050;-62
2023/09/30 05:10:55;;;;;;;16.83;7.57;;;;;;;18.65;45.52;96693.22;5140689;27;20074;-62
2023/09/30 05:13:23;;;;;;;18.52;8.90;;;;;;;19.53;42.26;96687.19;5140691;27;20079;-62
2023/09/30 05:15:51;;;;;;;16.10;7.47;;;;;;;20.37;40.66;96682.91;5140660;27;20103;-62
2023/09/30 05:18:18;;;;;;;16.25;7.90;;;;;;;21.03;36.62;96689.44;5140712;27;20051;-62
2023/09/30 05:20:46;;;;;;;19.45;8.40;;;;;;;21.83;37.28;96692.03;5140624;27;20058;-61
2023/09/30 05:23:17;;;;;;;23.42;8.70;;;;;;;22.52;35.58;96681.94;5140669;27;20047;-61
2023/09/30 05:25:45;;;;;;;20.95;7.82;;;;;;;23.12;34.71;96693.81;5140619;27;20039;-62
2023/09/30 05:28:13;;;;;;;12.77;7.75;;;;;;;23.79;32.80;96692.47;5140489;27;20047;-62
2023/09/30 05:30:41;;;;;;;16.50;7.57;;;;;;;24.44;31.74;96693.81;5140438;27;20047;-62
2023/09/30 05:33:13;;;;;;;19.15;7.45;;;;;;;24.71;31.12;96679.69;5140456;27;20050;-62
2023/09/30 05:35:41;;;;;;;17.50;7.97;;;;;;;25.42;30.30;96684.66;5140566;27;20043;-62
2023/09/30 05:38:09;;;;;;;17.75;7.97;;;;;;;25.91;28.24;96691.59;5140553;27;20062;-62
2023/09/30 05:40:39;;;;;;;14.30;8.18;;;;;;;26.66;30.14;96691.44;5140416;27;20047;-62
2023/09/30 05:43:12;;;;;;;15.23;7.90;;;;;;;27.43;28.90;96698.78;5140457;27;20055;-62
2023/09/30 05:45:40;;;;;;;15.13;7.57;;;;;;;27.98;27.87;96707.34;5140448;27;20054;-63
2023/09/30 05:48:07;;;;;;;16.52;8.00;;;;;;;27.86;28.49;96700.59;5140347;27;20043;-62
2023/09/30 05:50:36;;;;;;;22.40;7.88;;;;;;;27.07;27.62;96698.91;5140355;27;20174;-62
2023/09/30 05:53:04;;;;;;;19.67;8.55;;;;;;;26.04;28.91;96707.31;5140489;27;20091;-62
2023/09/30 05:55:32;;;;;;;19.00;8.00;;;;;;;25.39;29.12;96708.19;5140308;27;20074;-62
2023/09/30 05:58:01;;;;;;;17.50;7.95;;;;;;;25.34;31.41;96708.63;5140260;27;20053;-63
2023/09/30 06:00:30;;;;;;;14.20;7.47;;;;;;;26.12;29.09;96706.53;5140408;27;20043;-62
2023/09/30 06:02:58;;;;;;;14.77;7.70;;;;;;;27.04;31.86;96704.59;5137153;27;20043;-62
2023/09/30 06:05:29;;;;;;;12.55;7.53;;;;;;;27.92;30.52;96712.53;5136937;27;20047;-62
2023/09/30 06:07:57;;;;;;;21.33;7.75;;;;;;;28.70;26.89;96710.47;5136875;27;20042;-63
2023/09/30 06:10:26;;;;;;;16.52;7.82;;;;;;;29.06;26.32;96708.41;5137005;27;20137;-62
2023/09/30 06:12:55;;;;;;;25.55;8.10;;;;;;;29.18;23.70;96712.41;5136796;27;20082;-62
2023/09/30 06:15:25;;;;;;;19.38;7.63;;;;;;;29.69;23.50;96711.25;5136835;27;20053;-62
2023/09/30 06:17:53;;;;;;;15.48;7.68;;;;;;;30.35;22.83;96709.19;5136759;27;20039;-62
2023/09/30 06:20:22;;;;;;;18.27;7.40;;;;;;;31.01;23.06;96710.50;5136692;27;20051;-62
2023/09/30 06:22:53;;;;;;;25.65;7.43;;;;;;;31.04;21.67;96711.97;5136633;27;20058;-62
2023/09/30 06:25:23;;;;;;;22.75;7.50;;;;;;;31.71;22.38;96717.47;5136634;27;20492;-62
2023/09/30 06:27:51;;;;;;;15.20;6.97;;;;;;;31.78;19.77;96719.25;5136566;27;20059;-62
2023/09/30 06:30:21;;;;;;;19.27;6.70;;;;;;;31.77;20.75;96714.88;5136581;27;20103;-62
2023/09/30 06:32:50;;;;;;;18.42;7.70;;;;;;;32.04;21.02;96727.88;5136640;27;20087;-62
2023/09/30 06:35:18;;;;;;;18.20;7.07;;;;;;;32.33;19.97;96720.69;5136553;27;20047;-63
2023/09/30 06:37:45;;;;;;;19.42;7.63;;;;;;;32.73;19.96;96728.38;5136258;27;20480;-62
2023/09/30 06:40:13;;;;;;;19.58;7.00;;;;;;;32.94;21.10;96739.34;5136235;27;20552;-62
2023/09/30 06:42:42;;;;;;;19.58;7.00;;;;;;;32.83;20.94;96736.13;5136254;27;20487;-63
2023/09/30 06:45:10;;;;;;;13.73;7.03;;;;;;;32.60;20.04;96733.66;5136439;27;20054;-63
2023/09/30 06:47:38;;;;;;;15.18;7.38;;;;;;;32.23;20.43;96734.53;5136496;27;20046;-62
2023/09/30 06:50:12;;;;;;;21.60;6.93;;;;;;;31.89;20.21;96741.41;5136115;27;20058;-62
2023/09/30 06:52:41;;;;;;;18.75;6.72;;;;;;;31.60;20.02;96732.31;5136059;27;20134;-62
2023/09/30 06:55:09;;;;;;;15.27;5.93;;;;;;;31.59;20.97;96734.19;5136205;27;20047;-62
2023/09/30 06:57:38;;;;;;;8.98;5.82;;;;;;;31.46;20.22;96734.84;5135977;27;20488;-63
2023/09/30 07:00:08;;;;;;;10.43;6.07;;;;;;;31.17;21.03;96735.63;5135969;27;20053;-62
2023/09/30 07:02:36;;;;;;;15.93;5.80;;;;;;;30.99;21.38;96731.44;5135821;27;20051;-62
2023/09/30 07:05:04;;;;;;;14.18;6.43;;;;;;;31.01;22.67;96734.78;5135745;27;20086;-62
2023/09/30 07:07:34;;;;;;;20.88;6.00;;;;;;;30.82;21.51;96731.56;5135842;27;20061;-62
2023/09/30 07:10:01;;;;;;;9.60;6.15;;;;;;;30.76;20.64;96733.16;5135591;27;20467;-62
2023/09/30 07:12:30;;;;;;;9.20;5.07;;;;;;;30.59;21.56;96742.38;5135642;27;20101;-62
2023/09/30 07:14:57;;;;;;;11.07;5.28;;;;;;;30.41;20.79;96732.75;5135396;27;20043;-62
2023/09/30 07:17:24;;;;;;;13.05;5.05;;;;;;;30.38;21.46;96731.25;5135448;27;20096;-62
2023/09/30 07:19:52;;;;;;;11.55;5.32;;;;;;;30.17;21.80;96734.59;5135452;27;20451;-62
2023/09/30 07:22:25;;;;;;;11.73;5.35;;;;;;;29.98;22.19;96733.16;5135552;27;20043;-62
2023/09/30 07:24:54;;;;;;;12.98;5.43;;;;;;;29.97;21.62;96734.16;5135438;27;20083;-61
2023/09/30 07:27:21;;;;;;;8.82;5.13;;;;;;;29.35;21.27;96748.19;5135371;27;20104;-61
2023/09/30 07:29:48;;;;;;;10.43;4.70;;;;;;;28.93;23.01;96735.81;5135215;27;20103;-61
2023/09/30 07:32:16;;;;;;;9.40;4.68;;;;;;;28.91;22.51;96730.59;5135204;27;20051;-62
2023/09/30 07:34:43;;;;;;;10.60;4.88;;;;;;;28.84;22.72;96730.44;5135123;27;20133;-61
2023/09/30 07:37:11;;;;;;;18.10;5.18;;;;;;;28.69;22.61;96737.53;5135279;27;20051;-61
2023/09/30 07:39:38;;;;;;;12.93;5.40;;;;;;;28.26;24.03;96738.47;5135153;27;20050;-61
2023/09/30 07:42:10;;;;;;;11.82;4.10;;;;;;;27.58;23.62;96741.13;5135168;27;20133;-61
2023/09/30 07:44:37;;;;;;;13.30;4.82;;;;;;;27.11;24.77;96752.13;5135023;27;20126;-61
2023/09/30 07:47:06;;;;;;;14.13;4.10;;;;;;;27.03;24.69;96733.28;5134995;27;20043;-61
2023/09/30 07:49:33;;;;;;;15.38;4.13;;;;;;;27.17;25.09;96742.59;5134964;27;20504;-61
2023/09/30 07:52:01;;;;;;;16.85;3.97;;;;;;;27.29;24.89;96726.19;5134837;27;20049;-61
2023/09/30 07:54:31;;;;;;;9.85;3.97;;;;;;;27.18;24.56;96746.13;5134823;27;20423;-61
2023/09/30 07:56:58;;;;;;;9.35;3.72;;;;;;;26.70;24.75;96741.91;5134816;27;20126;-61
2023/09/30 07:59:28;;;;;;;13.20;4.70;;;;;;;26.60;26.74;96739.31;5134867;27;20047;-61
2023/09/30 08:01:57;;;;;;;10.57;3.85;;;;;;;26.82;25.16;96749.72;5134443;27;20079;-61
2023/09/30 08:04:25;;;;;;;10.38;3.65;;;;;;;26.51;25.33;96752.81;5134607;27;20047;-61
2023/09/30 08:06:53;;;;;;;12.20;3.92;;;;;;;26.55;25.80;96748.84;5134695;27;20441;-61
2023/09/30 08:09:23;;;;;;;7.95;3.90;;;;;;;26.51;25.79;96755.50;5134770;27;20492;-61
2023/09/30 08:11:50;;;;;;;;;;;;;;;26.09;26.10;96745.19;5135100;27;20047;-61
2023/09/30 08:14:17;;;;;;;8.15;3.42;;;;;;;25.80;26.45;96740.03;5134553;27;19945;-61
2023/09/30 08:16:49;;;;;;;19.00;3.70;;;;;;;25.31;27.26;96755.28;5134474;27;20047;-61
2023/09/30 08:19:16;;;;;;;13.68;3.78;;;;;;;25.34;28.19;96754.13;5134434;27;20130;-61
2023/09/30 08:21:45;;;;;;;5.93;3.80;;;;;;;25.24;27.57;96755.03;5134510;27;20075;-61
2023/09/30 08:24:12;;;;;;;7.78;3.35;;;;;;;25.27;27.31;96753.03;5134323;27;20051;-61
2023/09/30 08:26:44;;;;;;;13.15;4.05;;;;;;;25.34;27.29;96765.69;5133800;27;20075;-61
2023/09/30 08:29:12;;;;;;;9.70;3.13;;;;;;;25.06;27.38;96749.59;5134300;27;20089;-61
2023/09/30 08:31:42;;;;;;;8.80;3.58;;;;;;;25.03;27.68;96757.06;5134270;27;20087;-60
2023/09/30 08:34:11;;;;;;;12.27;3.70;;;;;;;24.88;27.93;96762.00;5134261;27;20047;-61
2023/09/30 08:36:39;;;;;;;6.05;3.70;;;;;;;24.81;28.61;96756.38;5134199;27;20122;-61
2023/09/30 08:39:12;;;;;;;12.18;3.60;;;;;;;24.77;28.63;96763.81;5134176;27;20051;-61
2023/09/30 08:41:44;;;;;;;13.70;3.40;;;;;;;24.86;28.42;96760.28;5134091;27;20129;-61
2023/09/30 08:44:14;;;;;;;7.53;4.18;;;;;;;24.83;28.41;96768.59;5134112;27;20118;-61
2023/09/30 08:46:47;;;;;;;6.47;3.85;;;;;;;24.76;28.29;96758.63;5134183;27;20128;-61
2023/09/30 08:49:18;;;;;;;11.18;3.63;;;;;;;24.58;29.15;96760.19;5133787;27;20051;-61
2023/09/30 08:51:46;;;;;;;9.18;3.42;;;;;;;24.57;29.25;96763.88;5134133;27;20078;-61
2023/09/30 08:54:17;;;;;;;7.03;4.03;;;;;;;24.57;29.50;96768.34;5133897;27;20081;-61
2023/09/30 08:56:49;;;;;;;11.48;4.60;;;;;;;24.59;29.18;96761.06;5133964;28;20098;-61
2023/09/30 08:59:18;;;;;;;10.27;4.03;;;;;;;24.73;29.53;96757.09;5133950;28;20051;-61
2023/09/30 09:01:46;;;;;;;10.13;4.05;;;;;;;24.57;28.93;96761.19;5133659;28;20390;-61
2023/09/30 09:04:21;;;;;;;14.98;3.92;;;;;;;24.42;29.98;96767.94;5133809;28;20126;-61
2023/09/30 09:06:49;;;;;;;8.52;3.53;;;;;;;24.39;29.50;96765.53;5133887;28;20043;-61
2023/09/30 09:09:18;;;;;;;14.98;3.83;;;;;;;24.21;30.18;96768.91;5133871;27;20134;-61
2023/09/30 09:11:50;;;;;;;13.63;3.78;;;;;;;24.05;29.97;96764.91;5133949;27;20138;-61
2023/09/30 09:14:38;;;;;;;6.63;3.47;;;;;;;24.04;31.53;96767.72;5133760;28;20503;-61
2023/09/30 09:17:07;;;;;;;15.38;3.55;;;;;;;24.02;30.96;96764.34;5133809;28;20051;-60
2023/09/30 09:19:36;;;;;;;10.93;3.50;;;;;;;23.79;30.65;96765.44;5133736;28;20108;-61
2023/09/30 09:22:06;;;;;;;10.52;4.20;;;;;;;24.00;30.65;96759.16;5133757;28;20434;-60
2023/09/30 09:24:35;;;;;;;8.77;4.28;;;;;;;24.25;30.03;96758.75;5133768;28;20050;-60
2023/09/30 09:27:07;;;;;;;13.82;3.72;;;;;;;24.40;30.07;96756.53;5133264;28;20074;-60
2023/09/30 09:29:36;;;;;;;14.48;4.60;;;;;;;24.69;29.52;96753.00;5133584;28;20047;-61
2023/09/30 09:32:14;;;;;;;11.47;3.70;;;;;;;25.36;29.17;96757.53;5133687;27;20485;-61
2023/09/30 09:34:45;;;;;;;11.52;3.78;;;;;;;25.91;27.65;96755.88;5133698;27;20362;-61
2023/09/30 09:37:18;;;;;;;12.40;3.85;;;;;;;26.03;27.97;96756.50;5133674;27;20138;-61
2023/09/30 09:39:57;;;;;;;13.07;4.03;;;;;;;26.28;27.49;96761.28;5137314;27;20535;-61
2023/09/30 09:42:30;;;;;;;10.57;3.58;;;;;;;26.23;26.83;96761.75;5137451;27;20047;-61
2023/09/30 09:44:59;;;;;;;13.35;3.65;;;;;;;25.79;28.01;96757.09;5137420;27;20039;-61
2023/09/30 09:47:31;;;;;;;14.10;3.80;;;;;;;25.73;27.90;96751.34;5137341;27;20083;-61
2023/09/30 09:50:06;;;;;;;11.50;4.25;;;;;;;25.99;28.15;96749.78;5137367;27;20127;-61
2023/09/30 09:52:37;;;;;;;11.02;4.18;;;;;;;26.37;27.82;96744.31;5137279;27;20542;-61
2023/09/30 09:55:07;;;;;;;12.25;3.88;;;;;;;26.68;27.79;96753.78;5137285;27;20043;-61
2023/09/30 09:57:38;;;;;;;12.57;4.25;;;;;;;26.84;26.88;96753.91;5137182;27;20043;-61
2023/09/30 10:00:14;;;;;;;12.75;3.75;;;;;;;26.29;26.51;96737.03;5137139;27;20051;-61
2023/09/30 10:02:42;;;;;;;10.82;4.25;;;;;;;25.75;27.82;96748.50;5137031;27;20047;-61
2023/09/30 10:05:12;;;;;;;8.52;4.05;;;;;;;25.52;28.25;96737.31;5137056;27;20051;-61
2023/09/30 10:07:46;;;;;;;9.38;3.63;;;;;;;25.15;28.37;96742.53;5136915;27;20043;-61
2023/09/30 10:10:19;;;;;;;11.35;3.85;;;;;;;25.07;29.03;96729.03;5136874;27;20054;-60
2023/09/30 10:12:52;;;;;;;12.27;4.40;;;;;;;25.32;28.90;96735.59;5136810;27;20051;-61
2023/09/30 10:15:42;;;;;;;15.52;4.47;;;;;;;25.43;29.29;96731.03;5136828;27;20130;-61
2023/09/30 10:18:11;;;;;;;16.23;4.55;;;;;;;25.30;28.58;96731.34;5136816;27;20042;-61
2023/09/30 10:20:47;;;;;;;10.82;4.55;;;;;;;25.01;28.89;96732.28;5136690;27;20043;-61
2023/09/30 10:23:33;;;;;;;11.88;4.28;;;;;;;24.99;28.89;96719.88;5136760;27;20043;-61
2023/09/30 10:26:19;;;;;;;12.48;3.97;;;;;;;25.14;29.58;96735.50;5136139;27;20109;-61
2023/09/30 10:28:49;;;;;;;14.52;4.97;;;;;;;25.18;28.87;96706.59;5136569;27;20053;-61
2023/09/30 10:31:19;;;;;;;24.73;4.38;;;;;;;25.24;27.84;96698.00;5136421;27;20043;-61
2023/09/30 10:34:24;;;;;;;11.93;4.22;;;;;;;25.24;28.04;96701.50;5136427;27;20074;-61
2023/09/30 10:36:52;;;;;;;9.40;3.90;;;;;;;25.20;27.09;96697.41;5136385;27;20377;-61
2023/09/30 10:39:53;;;;;;;13.25;4.50;;;;;;;25.42;26.78;96682.00;5136455;27;20074;-61
2023/09/30 10:42:49;;;;;;;10.15;3.97;;;;;;;25.44;27.46;96704.09;5136323;27;20048;-61
2023/09/30 10:45:45;;;;;;;9.63;3.90;;;;;;;25.76;27.45;96701.16;5136245;27;20043;-61
2023/09/30 10:48:34;;;;;;;9.73;3.90;;;;;;;25.72;26.72;96666.63;5136121;27;20043;-61
2023/09/30 10:51:11;;;;;;;11.67;4.10;;;;;;;25.82;26.92;96685.31;5136238;27;20506;-61
2023/09/30 10:53:51;;;;;;;10.27;3.92;;;;;;;26.11;27.19;96683.41;5136125;27;20043;-61
2023/09/30 10:56:19;;;;;;;20.02;4.95;;;;;;;26.35;26.67;96680.16;5136158;27;20111;-61
2023/09/30 10:58:48;;;;;;;8.15;3.58;;;;;;;26.29;27.35;96679.88;5136065;27;20088;-61
2023/09/30 11:01:20;;;;;;;8.55;4.28;;;;;;;26.28;26.72;96665.66;5136040;27;20051;-61
2023/09/30 11:03:50;;;;;;;11.60;4.50;;;;;;;26.32;26.66;96668.88;5135759;27;20046;-61
2023/09/30 11:06:20;;;;;;;9.63;3.67;;;;;;;26.24;27.11;96664.25;5135850;27;20053;-61
2023/09/30 11:08:54;;;;;;;8.38;3.75;;;;;;;26.27;27.11;96657.75;5135905;27;20047;-61
2023/09/30 11:11:32;;;;;;;7.57;3.50;;;;;;;25.82;26.91;96668.38;5135711;27;20482;-61
2023/09/30 11:13:59;;;;;;;10.52;3.95;;;;;;;25.35;27.83;96665.66;5135803;27;20043;-60
2023/09/30 11:16:28;;;;;;;13.60;4.35;;;;;;;25.23;28.06;96665.03;5135628;27;20126;-60
2023/09/30 11:18:56;;;;;;;10.60;3.92;;;;;;;25.15;27.62;96669.44;5135359;27;20076;-61
2023/09/30 11:21:24;;;;;;;11.35;4.50;;;;;;;25.26;27.22;96661.22;5135585;27;20062;-61
2023/09/30 11:23:53;;;;;;;13.70;4.50;;;;;;;25.38;27.08;96659.19;5135591;27;20088;-60
2023/09/30 11:26:32;;;;;;;8.40;3.75;;;;;;;25.53;26.56;96658.69;5135631;27;20385;-60
2023/09/30 11:29:07;;;;;;;11.48;4.28;;;;;;;25.32;26.53;96655.28;5135497;27;20104;-60
2023/09/30 11:31:35;;;;;;;9.80;3.63;;;;;;;25.20;26.14;96662.63;5135366;27;20068;-61
2023/09/30 11:34:04;;;;;;;7.53;3.78;;;;;;;25.28;26.78;96669.09;5135433;27;20108;-60
2023/09/30 11:36:32;;;;;;;3.75;3.10;;;;;;;25.57;25.74;96654.69;5135254;27;20051;-61